Time;durP1;ratioP1;P1;durP2;ratioP2;P2;SDS_P1;SDS_P2;PMS_P1;PMS_P2;Temp;Humidity;BMP_temperature;BMP_pressure;BME280_temperature;BME280_humidity;BME280_pressure;Samples;Min_cycle;Max_cycle;Signal;HPM_P1;HPM_P2
2023/02/11 00:00:44;;;;;;;48.38;33.92;;;8.20;99.90;;;;;;2081610;28;20115;-73
2023/02/11 00:01:44;;;;;;;49.28;32.80;;;8.20;99.90;;;;;;2088666;28;20131;-73
2023/02/11 00:02:45;;;;;;;45.08;32.65;;;8.10;99.90;;;;;;2090205;28;20075;-73
2023/02/11 00:03:45;;;;;;;47.15;32.03;;;8.20;99.90;;;;;;2091819;28;20101;-73
2023/02/11 00:04:46;;;;;;;48.72;32.10;;;8.10;99.90;;;;;;2092412;28;20462;-73
2023/02/11 00:05:57;;;;;;;48.95;32.50;;;8.10;99.90;;;;;;2090505;28;20026;-73
2023/02/11 00:06:57;;;;;;;43.25;30.88;;;8.20;99.90;;;;;;2091336;28;20032;-73
2023/02/11 00:07:58;;;;;;;43.60;32.10;;;8.10;99.90;;;;;;2089196;28;20020;-73
2023/02/11 00:08:59;;;;;;;45.15;32.95;;;8.10;99.90;;;;;;2091496;28;20024;-73
2023/02/11 00:10:01;;;;;;;43.83;30.85;;;8.10;99.90;;;;;;2082237;28;20041;-73
2023/02/11 00:11:02;;;;;;;48.38;31.52;;;8.10;99.90;;;;;;2089318;28;20505;-73
2023/02/11 00:12:03;;;;;;;43.03;31.13;;;8.10;99.90;;;;;;2092661;28;20127;-73
2023/02/11 00:13:04;;;;;;;42.65;31.58;;;8.10;99.90;;;;;;2090422;28;20037;-73
2023/02/11 00:14:07;;;;;;;39.35;28.90;;;8.10;99.90;;;;;;2091082;28;20020;-73
2023/02/11 00:15:08;;;;;;;40.88;29.48;;;8.10;99.90;;;;;;2090116;28;20037;-73
2023/02/11 00:16:12;;;;;;;43.88;28.95;;;8.10;99.90;;;;;;2089277;28;20016;-73
2023/02/11 00:17:13;;;;;;;42.30;31.42;;;8.10;99.90;;;;;;2091657;28;20067;-73
2023/02/11 00:18:14;;;;;;;45.28;29.02;;;8.10;99.90;;;;;;2088129;28;20028;-73
2023/02/11 00:19:15;;;;;;;39.03;30.02;;;8.10;99.90;;;;;;2091756;28;20020;-73
2023/02/11 00:20:15;;;;;;;43.97;30.67;;;8.10;99.90;;;;;;2088498;28;20080;-73
2023/02/11 00:21:19;;;;;;;44.72;30.80;;;8.10;99.90;;;;;;2092092;28;20031;-73
2023/02/11 00:22:19;;;;;;;42.92;30.77;;;8.10;99.90;;;;;;2083275;28;20029;-73
2023/02/11 00:23:20;;;;;;;41.60;28.67;;;8.10;99.90;;;;;;2089961;28;20056;-73
2023/02/11 00:24:20;;;;;;;40.20;28.77;;;8.10;99.90;;;;;;2088899;28;20037;-73
2023/02/11 00:25:21;;;;;;;40.30;28.65;;;8.10;99.90;;;;;;2090870;28;20032;-73
2023/02/11 00:26:24;;;;;;;41.55;29.30;;;8.00;99.90;;;;;;2082436;28;21768;-73
2023/02/11 00:27:25;;;;;;;46.83;29.63;;;8.00;99.90;;;;;;2090038;28;20225;-73
2023/02/11 00:28:25;;;;;;;41.50;29.00;;;8.10;99.90;;;;;;2090777;28;20025;-73
2023/02/11 00:29:26;;;;;;;42.80;29.35;;;8.00;99.90;;;;;;2089437;28;20025;-73
2023/02/11 00:30:26;;;;;;;42.33;28.83;;;8.00;99.90;;;;;;2093390;28;20016;-73
2023/02/11 00:31:27;;;;;;;47.00;30.77;;;8.10;99.90;;;;;;2091937;28;20055;-73
2023/02/11 00:32:28;;;;;;;43.25;29.95;;;8.00;99.90;;;;;;2090023;28;20029;-73
2023/02/11 00:33:28;;;;;;;38.72;29.40;;;8.00;99.90;;;;;;2089110;28;20091;-73
2023/02/11 00:34:32;;;;;;;44.22;29.85;;;8.00;99.90;;;;;;2090735;28;20067;-73
2023/02/11 00:35:35;;;;;;;42.53;28.70;;;8.00;99.90;;;;;;2089784;28;20063;-72
2023/02/11 00:36:35;;;;;;;42.72;29.85;;;8.00;99.90;;;;;;2090218;28;20033;-73
2023/02/11 00:37:36;;;;;;;38.53;29.38;;;8.00;99.90;;;;;;2088132;28;21338;-73
2023/02/11 00:38:36;;;;;;;45.50;28.70;;;8.00;99.90;;;;;;2092793;28;20024;-73
2023/02/11 00:39:37;;;;;;;38.70;27.75;;;8.00;99.90;;;;;;2090269;28;20068;-73
2023/02/11 00:40:37;;;;;;;44.42;28.92;;;8.00;99.90;;;;;;2091464;28;20033;-73
2023/02/11 00:41:38;;;;;;;44.00;28.92;;;8.00;99.90;;;;;;2090836;28;20029;-73
2023/02/11 00:42:38;;;;;;;39.95;27.20;;;8.10;99.90;;;;;;2089502;28;20119;-73
2023/02/11 00:43:40;;;;;;;42.15;28.55;;;8.00;99.90;;;;;;2092661;28;20016;-73
2023/02/11 00:44:41;;;;;;;38.83;29.02;;;8.10;99.90;;;;;;2092059;28;20447;-73
2023/02/11 00:45:41;;;;;;;40.83;27.98;;;8.10;99.90;;;;;;2091096;28;20119;-73
2023/02/11 00:46:42;;;;;;;42.45;28.77;;;8.10;99.90;;;;;;2091125;28;20025;-73
2023/02/11 00:47:42;;;;;;;44.53;28.48;;;8.10;99.90;;;;;;2090189;28;20021;-73
2023/02/11 00:48:43;;;;;;;42.20;29.92;;;8.00;99.90;;;;;;2089953;28;20044;-73
2023/02/11 00:49:44;;;;;;;41.75;28.85;;;8.00;99.90;;;;;;2090311;28;20037;-73
2023/02/11 00:50:44;;;;;;;39.13;28.70;;;8.00;99.90;;;;;;2090348;28;20032;-73
2023/02/11 00:51:45;;;;;;;40.55;28.90;;;8.00;99.90;;;;;;2091494;28;20102;-73
2023/02/11 00:52:45;;;;;;;40.65;28.17;;;8.10;99.90;;;;;;2089929;28;20039;-73
2023/02/11 00:53:46;;;;;;;44.67;28.33;;;8.10;99.90;;;;;;2092920;28;20036;-73
2023/02/11 00:54:46;;;;;;;36.45;27.38;;;8.10;99.90;;;;;;2091669;28;20036;-73
2023/02/11 00:55:47;;;;;;;43.05;27.65;;;8.10;99.90;;;;;;2092335;28;20067;-73
2023/02/11 00:56:47;;;;;;;37.53;27.50;;;8.10;99.90;;;;;;2093229;28;20496;-73
2023/02/11 00:57:48;;;;;;;37.05;28.50;;;8.10;99.90;;;;;;2094979;28;20025;-73
2023/02/11 00:58:48;;;;;;;41.75;28.42;;;8.10;99.90;;;;;;2092290;28;20033;-73
2023/02/11 00:59:49;;;;;;;37.75;28.50;;;8.10;99.90;;;;;;2090135;28;20098;-73
2023/02/11 01:00:50;;;;;;;41.85;29.15;;;8.10;99.90;;;;;;2091324;28;20100;-73
2023/02/11 01:01:50;;;;;;;40.85;28.48;;;8.10;99.90;;;;;;2090084;28;20033;-73
2023/02/11 01:02:51;;;;;;;36.28;27.75;;;8.10;99.90;;;;;;2092214;28;20029;-73
2023/02/11 01:03:52;;;;;;;37.38;27.20;;;8.10;99.90;;;;;;2091185;28;20028;-73
2023/02/11 01:04:52;;;;;;;38.83;27.48;;;8.10;99.90;;;;;;2090600;28;20025;-73
2023/02/11 01:05:54;;;;;;;36.25;27.33;;;8.10;99.90;;;;;;2090869;28;20060;-73
2023/02/11 01:06:54;;;;;;;38.50;28.75;;;8.10;99.90;;;;;;2091188;28;20543;-73
2023/02/11 01:07:55;;;;;;;39.80;28.02;;;8.10;99.90;;;;;;2091796;28;20525;-73
2023/02/11 01:08:55;;;;;;;43.13;29.75;;;8.10;99.90;;;;;;2090259;28;20025;-73
2023/02/11 01:09:56;;;;;;;40.55;29.42;;;8.10;99.90;;;;;;2089869;28;20776;-73
2023/02/11 01:10:59;;;;;;;40.33;27.50;;;8.10;99.90;;;;;;2090604;28;20656;-73
2023/02/11 01:12:00;;;;;;;39.55;26.77;;;8.10;99.90;;;;;;2092401;28;20036;-73
2023/02/11 01:13:01;;;;;;;36.38;26.02;;;8.20;99.90;;;;;;2092065;28;20040;-73
2023/02/11 01:14:01;;;;;;;35.42;26.55;;;8.20;99.90;;;;;;2098917;28;20562;-73
2023/02/11 01:15:04;;;;;;;36.45;27.08;;;8.20;99.90;;;;;;2101137;28;20059;-73
2023/02/11 01:16:09;;;;;;;38.22;27.48;;;8.20;99.90;;;;;;2092179;28;20032;-73
2023/02/11 01:17:10;;;;;;;38.55;27.90;;;8.20;99.90;;;;;;2091649;28;20047;-73
2023/02/11 01:18:11;;;;;;;37.28;27.10;;;8.20;99.90;;;;;;2091431;28;20036;-73
2023/02/11 01:19:12;;;;;;;43.00;27.25;;;8.20;99.90;;;;;;2096734;28;20460;-73
2023/02/11 01:20:30;;;;;;;37.15;26.63;;;8.20;99.90;;;;;;2098630;28;20075;-73
2023/02/11 01:21:30;;;;;;;35.10;25.95;;;8.20;99.90;;;;;;2091954;28;20024;-73
2023/02/11 01:22:33;;;;;;;42.65;27.15;;;8.20;99.90;;;;;;2093787;28;20028;-73
2023/02/11 01:23:33;;;;;;;36.85;27.23;;;8.20;99.90;;;;;;2089891;28;20099;-73
2023/02/11 01:24:34;;;;;;;35.70;26.73;;;8.20;99.90;;;;;;2090726;28;20021;-73
2023/02/11 01:25:34;;;;;;;36.75;26.25;;;8.20;99.90;;;;;;2091918;28;20028;-73
2023/02/11 01:26:35;;;;;;;34.35;26.55;;;8.20;99.90;;;;;;2090963;28;20552;-73
2023/02/11 01:27:36;;;;;;;39.65;27.67;;;8.20;99.90;;;;;;2089818;28;20036;-73
2023/02/11 01:28:37;;;;;;;38.13;26.77;;;8.20;99.90;;;;;;2092398;28;20725;-73
2023/02/11 01:29:37;;;;;;;35.13;25.92;;;8.20;99.90;;;;;;2090420;28;20445;-73
2023/02/11 01:30:38;;;;;;;37.40;26.33;;;8.20;99.90;;;;;;2089570;28;20037;-73
2023/02/11 01:31:39;;;;;;;35.70;25.83;;;8.20;99.90;;;;;;2091995;28;20025;-73
2023/02/11 01:32:39;;;;;;;38.42;27.33;;;8.20;99.90;;;;;;2090549;28;20098;-73
2023/02/11 01:33:40;;;;;;;36.00;26.85;;;8.20;99.90;;;;;;2093205;28;20111;-73
2023/02/11 01:34:40;;;;;;;34.90;26.48;;;8.20;99.90;;;;;;2090856;28;20028;-73
2023/02/11 01:35:41;;;;;;;35.72;26.88;;;8.30;99.90;;;;;;2091663;28;20036;-73
2023/02/11 01:36:42;;;;;;;39.13;25.95;;;8.20;99.90;;;;;;2092208;28;20155;-73
2023/02/11 01:37:42;;;;;;;39.65;27.85;;;8.20;99.90;;;;;;2092964;28;20419;-73
2023/02/11 01:38:44;;;;;;;36.60;27.17;;;8.20;99.90;;;;;;2092888;28;21822;-73
2023/02/11 01:39:44;;;;;;;35.15;25.60;;;8.30;99.90;;;;;;2092723;28;20144;-73
2023/02/11 01:40:48;;;;;;;36.60;25.83;;;8.30;99.90;;;;;;2093030;28;20028;-73
2023/02/11 01:41:48;;;;;;;32.80;26.17;;;8.30;99.90;;;;;;2091231;28;20029;-73
2023/02/11 01:42:49;;;;;;;34.78;26.70;;;8.30;99.90;;;;;;2091024;28;20507;-73
2023/02/11 01:43:49;;;;;;;34.40;26.02;;;8.30;99.90;;;;;;2091810;28;20778;-73
2023/02/11 01:44:52;;;;;;;35.60;26.77;;;8.30;99.90;;;;;;2092698;28;20107;-73
2023/02/11 01:46:03;;;;;;;36.00;26.38;;;8.30;99.90;;;;;;2090585;28;20021;-73
2023/02/11 01:47:05;;;;;;;40.22;27.08;;;8.30;99.90;;;;;;2091285;28;20039;-73
2023/02/11 01:48:07;;;;;;;32.45;25.42;;;8.30;99.90;;;;;;2092911;28;20024;-73
2023/02/11 01:49:17;;;;;;;37.40;26.98;;;8.30;99.90;;;;;;2091116;28;21502;-73
2023/02/11 01:50:17;;;;;;;37.30;25.73;;;8.30;99.90;;;;;;2091382;28;20037;-73
2023/02/11 01:51:26;;;;;;;34.20;25.20;;;8.30;99.90;;;;;;2090761;28;20033;-73
2023/02/11 01:52:35;;;;;;;38.90;26.17;;;8.30;99.90;;;;;;2090464;28;20024;-73
2023/02/11 01:57:49;;;;;;;32.22;24.67;;;8.30;99.90;;;;;;2091037;28;20025;-72
2023/02/11 01:58:52;;;;;;;32.28;24.27;;;8.20;99.90;;;;;;2089949;28;20480;-73
2023/02/11 02:00:16;;;;;;;31.33;24.98;;;8.30;99.90;;;;;;2089363;28;20063;-72
2023/02/11 02:01:21;;;;;;;35.25;23.92;;;8.30;99.90;;;;;;2091813;28;20104;-72
2023/02/11 02:02:48;;;;;;;30.55;23.63;;;8.30;99.90;;;;;;2092191;28;20501;-72
2023/02/11 02:03:53;;;;;;;36.95;26.33;;;8.20;99.90;;;;;;2089855;28;20033;-72
2023/02/11 02:05:25;;;;;;;39.10;27.00;;;8.20;99.90;;;;;;2092533;28;20046;-72
2023/02/11 02:06:44;;;;;;;38.90;26.90;;;8.20;99.90;;;;;;2091975;28;20423;-72
2023/02/11 02:07:59;;;;;;;36.05;26.00;;;8.20;99.90;;;;;;2090626;28;20033;-72
2023/02/11 02:09:06;;;;;;;35.42;25.92;;;8.20;99.90;;;;;;2093190;28;20062;-72
2023/02/11 02:10:12;;;;;;;36.80;26.38;;;8.20;99.90;;;;;;2090882;28;20014;-72
2023/02/11 02:11:13;;;;;;;38.78;25.90;;;8.20;99.90;;;;;;2091670;28;20115;-72
2023/02/11 02:12:13;;;;;;;37.38;25.77;;;8.20;99.90;;;;;;2094070;28;20039;-72
2023/02/11 02:13:15;;;;;;;37.17;24.42;;;8.20;99.90;;;;;;2084427;28;20497;-72
2023/02/11 02:14:15;;;;;;;35.13;25.75;;;8.20;99.90;;;;;;2091480;28;20024;-72
2023/02/11 02:15:29;;;;;;;36.00;24.38;;;8.30;99.90;;;;;;2092250;28;20496;-72
2023/02/11 02:16:34;;;;;;;32.28;22.85;;;8.20;99.90;;;;;;2092121;28;20049;-72
2023/02/11 02:17:44;;;;;;;35.17;24.70;;;8.20;99.90;;;;;;2092954;28;20040;-72
2023/02/11 02:19:09;;;;;;;34.75;25.00;;;8.20;99.90;;;;;;2092574;28;20490;-72
2023/02/11 02:20:21;;;;;;;33.72;24.70;;;8.20;99.90;;;;;;2091281;28;20043;-72
2023/02/11 02:21:49;;;;;;;32.08;24.92;;;8.20;99.90;;;;;;2092600;28;20032;-72
2023/02/11 02:23:11;;;;;;;32.05;23.33;;;8.20;99.90;;;;;;2091944;28;20052;-72
2023/02/11 02:24:42;;;;;;;39.78;25.83;;;8.20;99.90;;;;;;2089439;28;20027;-72
2023/02/11 02:26:05;;;;;;;35.13;24.73;;;8.20;99.90;;;;;;2090083;28;20021;-72
2023/02/11 02:27:32;;;;;;;32.17;23.65;;;8.20;99.90;;;;;;2089902;28;20029;-72
2023/02/11 02:29:05;;;;;;;32.55;23.00;;;8.20;99.90;;;;;;2092559;28;20528;-72
2023/02/11 02:30:31;;;;;;;34.83;24.33;;;8.10;99.90;;;;;;2089191;28;20372;-72
2023/02/11 02:31:45;;;;;;;34.67;24.15;;;8.10;99.90;;;;;;2089974;28;20078;-72
2023/02/11 02:33:07;;;;;;;36.88;24.30;;;8.10;99.90;;;;;;2090990;28;20052;-72
2023/02/11 02:34:35;;;;;;;33.35;23.85;;;8.10;99.90;;;;;;2090002;28;20037;-72
2023/02/11 02:35:46;;;;;;;33.30;23.90;;;8.10;99.90;;;;;;2090132;28;20114;-72
2023/02/11 02:36:53;;;;;;;28.85;23.58;;;8.10;99.90;;;;;;2092053;28;20074;-72
2023/02/11 02:38:05;;;;;;;34.55;24.55;;;8.10;99.90;;;;;;2090737;28;20125;-72
2023/02/11 02:39:12;;;;;;;33.50;24.65;;;8.10;99.90;;;;;;2093720;28;20052;-72
2023/02/11 02:40:27;;;;;;;33.10;24.65;;;8.10;99.90;;;;;;2093342;28;20017;-72
2023/02/11 02:41:31;;;;;;;36.40;24.95;;;8.10;99.90;;;;;;2091058;28;20032;-72
2023/02/11 02:42:32;;;;;;;40.65;25.33;;;8.10;99.90;;;;;;2091672;28;20534;-72
2023/02/11 02:43:34;;;;;;;35.05;24.95;;;8.20;99.90;;;;;;2090393;28;20104;-72
2023/02/11 02:44:34;;;;;;;32.25;24.65;;;8.20;99.90;;;;;;2090904;28;20082;-72
2023/02/11 02:45:35;;;;;;;35.80;25.30;;;8.10;99.90;;;;;;2091677;28;20025;-72
2023/02/11 02:46:36;;;;;;;37.50;23.77;;;8.20;99.90;;;;;;2092758;28;20029;-72
2023/02/11 02:47:37;;;;;;;38.20;25.35;;;8.20;99.90;;;;;;2093350;28;20600;-72
2023/02/11 02:48:37;;;;;;;31.08;23.83;;;8.20;99.90;;;;;;2090081;28;20056;-72
2023/02/11 02:49:38;;;;;;;35.28;24.13;;;8.20;99.90;;;;;;2089253;28;20025;-72
2023/02/11 02:50:39;;;;;;;35.10;24.70;;;8.20;99.90;;;;;;2091016;28;20041;-72
2023/02/11 02:51:51;;;;;;;33.17;24.67;;;8.20;99.90;;;;;;2090279;28;20033;-72
2023/02/11 02:53:10;;;;;;;32.95;23.48;;;8.20;99.90;;;;;;2091807;28;20040;-72
2023/02/11 02:54:17;;;;;;;34.03;24.10;;;8.20;99.90;;;;;;2088338;28;20610;-72
2023/02/11 02:55:33;;;;;;;33.35;25.00;;;8.20;99.90;;;;;;2091330;28;20029;-72
2023/02/11 02:56:44;;;;;;;31.63;23.50;;;8.20;99.90;;;;;;2091925;28;20032;-72
2023/02/11 02:58:02;;;;;;;33.45;22.35;;;8.20;99.90;;;;;;2089441;28;20104;-72
2023/02/11 02:59:12;;;;;;;30.38;23.45;;;8.20;99.90;;;;;;2092474;28;20024;-72
2023/02/11 03:00:33;;;;;;;35.80;24.45;;;8.10;99.90;;;;;;2089164;28;20029;-72
2023/02/11 03:02:07;;;;;;;33.17;23.45;;;8.10;99.90;;;;;;2090595;28;20029;-72
2023/02/11 03:03:48;;;;;;;32.53;23.88;;;8.10;99.90;;;;;;2091212;28;21388;-71
2023/02/11 03:05:03;;;;;;;36.75;24.48;;;8.10;99.90;;;;;;2091064;28;20025;-72
2023/02/11 03:06:19;;;;;;;34.45;24.13;;;8.10;99.90;;;;;;2090580;28;20047;-72
2023/02/11 03:07:44;;;;;;;33.65;23.67;;;8.10;99.90;;;;;;2090719;28;20197;-72
2023/02/11 03:08:53;;;;;;;31.17;24.10;;;8.10;99.90;;;;;;2087148;28;20024;-72
2023/02/11 03:09:57;;;;;;;32.63;24.02;;;8.10;99.90;;;;;;2089541;28;20396;-72
2023/02/11 03:11:00;;;;;;;34.15;24.73;;;8.10;99.90;;;;;;2091188;28;20403;-72
2023/02/11 03:12:02;;;;;;;32.78;24.80;;;8.10;99.90;;;;;;2091324;28;20689;-72
2023/02/11 03:13:04;;;;;;;36.13;24.27;;;8.20;99.90;;;;;;2091061;28;20044;-72
2023/02/11 03:14:09;;;;;;;33.90;25.13;;;8.20;99.90;;;;;;2091062;28;20024;-72
2023/02/11 03:15:11;;;;;;;35.78;23.80;;;8.20;99.90;;;;;;2090817;28;20436;-72
2023/02/11 03:16:21;;;;;;;35.55;24.13;;;8.20;99.90;;;;;;2091504;28;20234;-72
2023/02/11 03:17:24;;;;;;;35.23;25.13;;;8.20;99.90;;;;;;2092520;28;20052;-72
2023/02/11 03:18:28;;;;;;;34.83;24.48;;;8.20;99.90;;;;;;2090951;28;21344;-72
2023/02/11 03:19:36;;;;;;;35.25;25.20;;;8.20;99.90;;;;;;2091244;28;20028;-72
2023/02/11 03:20:42;;;;;;;37.60;24.90;;;8.20;99.90;;;;;;2091286;28;20054;-72
2023/02/11 03:21:45;;;;;;;35.80;25.13;;;8.20;99.90;;;;;;2091549;28;20521;-72
2023/02/11 03:22:55;;;;;;;34.55;25.17;;;8.20;99.90;;;;;;2091020;28;20043;-72
2023/02/11 03:23:59;;;;;;;36.35;25.75;;;8.20;99.90;;;;;;2091479;28;20025;-72
2023/02/11 03:25:01;;;;;;;35.80;26.25;;;8.20;99.90;;;;;;2091155;28;21699;-72
2023/02/11 03:26:22;;;;;;;37.67;25.88;;;8.20;99.90;;;;;;2092204;28;20707;-72
2023/02/11 03:27:51;;;;;;;38.75;25.20;;;8.20;99.90;;;;;;2093708;28;20081;-72
2023/02/11 03:29:03;;;;;;;36.08;25.23;;;8.20;99.90;;;;;;2092317;28;20031;-72
2023/02/11 03:30:25;;;;;;;33.92;24.52;;;8.20;99.90;;;;;;2088247;28;20037;-72
2023/02/11 03:31:38;;;;;;;34.88;24.65;;;8.10;99.90;;;;;;2087551;28;20086;-72
2023/02/11 03:32:48;;;;;;;35.38;25.30;;;8.10;99.90;;;;;;2092899;28;20028;-72
2023/02/11 03:33:58;;;;;;;35.30;26.23;;;8.10;99.90;;;;;;2093245;28;20025;-72
2023/02/11 03:35:06;;;;;;;32.22;24.35;;;8.10;99.90;;;;;;2088776;28;20040;-72
2023/02/11 03:36:16;;;;;;;36.38;25.30;;;8.10;99.90;;;;;;2089378;28;20029;-72
2023/02/11 03:37:38;;;;;;;31.27;23.90;;;8.10;99.90;;;;;;2091810;28;20063;-72
2023/02/11 03:38:45;;;;;;;38.63;24.65;;;8.10;99.90;;;;;;2091703;28;20029;-72
2023/02/11 03:39:53;;;;;;;37.35;25.65;;;8.10;99.90;;;;;;2091032;28;20059;-72
2023/02/11 03:40:55;;;;;;;35.00;25.48;;;8.10;99.90;;;;;;2089776;28;20033;-72
2023/02/11 03:41:58;;;;;;;32.15;24.98;;;8.00;99.90;;;;;;2090254;28;20064;-72
2023/02/11 03:43:05;;;;;;;33.40;25.02;;;8.10;99.90;;;;;;2091548;28;20021;-72
2023/02/11 03:44:07;;;;;;;34.03;24.23;;;8.10;99.90;;;;;;2091986;28;20028;-72
2023/02/11 03:45:11;;;;;;;37.90;25.90;;;8.10;99.90;;;;;;2089892;28;20654;-72
2023/02/11 03:46:15;;;;;;;38.55;25.27;;;8.10;99.90;;;;;;2090343;28;20029;-72
2023/02/11 03:47:20;;;;;;;34.92;25.20;;;8.10;99.90;;;;;;2090652;28;20025;-72
2023/02/11 03:48:35;;;;;;;35.15;26.33;;;8.10;99.90;;;;;;2090199;28;20124;-72
2023/02/11 03:49:38;;;;;;;31.05;25.45;;;8.10;99.90;;;;;;2090604;28;20503;-72
2023/02/11 03:50:40;;;;;;;33.42;25.30;;;8.10;99.90;;;;;;2092063;28;20089;-72
2023/02/11 03:51:41;;;;;;;35.90;26.75;;;8.00;99.90;;;;;;2088768;28;20029;-72
2023/02/11 03:52:44;;;;;;;34.08;25.77;;;8.00;99.90;;;;;;2089994;28;20029;-72
2023/02/11 03:53:46;;;;;;;37.22;25.88;;;8.00;99.90;;;;;;2089602;28;20032;-72
2023/02/11 03:54:51;;;;;;;40.65;27.90;;;8.00;99.90;;;;;;2089934;28;20444;-72
2023/02/11 03:55:55;;;;;;;36.63;26.02;;;8.00;99.90;;;;;;2085718;28;20033;-72
2023/02/11 03:56:59;;;;;;;36.63;28.33;;;8.10;99.90;;;;;;2093006;28;20023;-72
2023/02/11 03:58:00;;;;;;;42.03;26.27;;;8.00;99.90;;;;;;2091672;28;20133;-72
2023/02/11 03:59:01;;;;;;;38.67;27.55;;;8.10;99.90;;;;;;2084158;28;20029;-72
2023/02/11 04:00:01;;;;;;;41.15;27.58;;;8.00;99.90;;;;;;2091379;28;20098;-72
2023/02/11 04:01:03;;;;;;;40.10;28.10;;;8.10;99.90;;;;;;2090587;28;20027;-72
2023/02/11 04:02:04;;;;;;;38.42;27.63;;;8.10;99.90;;;;;;2090243;28;20676;-72
2023/02/11 04:03:06;;;;;;;36.65;27.88;;;8.10;99.90;;;;;;2091560;28;20059;-72
2023/02/11 04:04:07;;;;;;;40.38;28.15;;;8.10;99.90;;;;;;2090056;28;20064;-72
2023/02/11 04:05:14;;;;;;;38.15;27.48;;;8.10;99.90;;;;;;2089273;28;20028;-72
2023/02/11 04:06:15;;;;;;;40.70;27.38;;;8.10;99.90;;;;;;2092143;28;20684;-72
2023/02/11 04:07:16;;;;;;;39.67;29.13;;;8.10;99.90;;;;;;2089392;28;20025;-72
2023/02/11 04:08:16;;;;;;;40.30;28.08;;;8.00;99.90;;;;;;2090300;28;20597;-72
2023/02/11 04:09:17;;;;;;;39.58;27.70;;;8.10;99.90;;;;;;2092297;28;20032;-72
2023/02/11 04:10:18;;;;;;;40.85;27.50;;;8.10;99.90;;;;;;2090899;28;20075;-72
2023/02/11 04:11:18;;;;;;;34.67;27.67;;;8.10;99.90;;;;;;2091069;28;20062;-72
2023/02/11 04:12:19;;;;;;;36.05;28.17;;;8.00;99.90;;;;;;2091263;28;20775;-72
2023/02/11 04:13:19;;;;;;;38.55;29.27;;;8.10;99.90;;;;;;2089668;28;20024;-72
2023/02/11 04:14:20;;;;;;;36.75;28.02;;;8.00;99.90;;;;;;2090229;28;20806;-72
2023/02/11 04:15:21;;;;;;;38.85;29.05;;;8.10;99.90;;;;;;2090064;28;20028;-72
2023/02/11 04:16:21;;;;;;;42.55;29.33;;;8.00;99.90;;;;;;2090220;28;20064;-72
2023/02/11 04:17:22;;;;;;;39.45;27.98;;;8.10;99.90;;;;;;2089990;28;20106;-72
2023/02/11 04:18:22;;;;;;;40.83;30.05;;;8.10;99.90;;;;;;2090464;28;20020;-72
2023/02/11 04:19:23;;;;;;;38.63;29.17;;;8.10;99.90;;;;;;2091585;28;20028;-72
2023/02/11 04:20:24;;;;;;;42.70;28.98;;;8.10;99.90;;;;;;2090505;28;20024;-72
2023/02/11 04:21:24;;;;;;;43.33;27.90;;;8.10;99.90;;;;;;2091175;28;20027;-72
2023/02/11 04:22:25;;;;;;;39.20;28.08;;;8.10;99.90;;;;;;2091196;28;20624;-72
2023/02/11 04:23:25;;;;;;;39.22;27.90;;;8.10;99.90;;;;;;2089096;28;20658;-72
2023/02/11 04:24:26;;;;;;;44.88;29.17;;;8.00;99.90;;;;;;2091452;28;20125;-72
2023/02/11 04:25:26;;;;;;;40.30;28.52;;;8.10;99.90;;;;;;2090903;28;20119;-72
2023/02/11 04:26:27;;;;;;;42.17;28.42;;;8.10;99.90;;;;;;2089511;28;20088;-72
2023/02/11 04:27:27;;;;;;;41.03;28.85;;;8.00;99.90;;;;;;2092650;28;20513;-72
2023/02/11 04:28:28;;;;;;;38.70;28.38;;;8.00;99.90;;;;;;2092839;28;20136;-72
2023/02/11 04:29:29;;;;;;;38.65;29.05;;;8.00;99.90;;;;;;2091737;28;20043;-72
2023/02/11 04:30:29;;;;;;;41.13;28.88;;;8.00;99.90;;;;;;2092318;28;20029;-72
2023/02/11 04:31:30;;;;;;;44.42;30.05;;;8.00;99.90;;;;;;2092778;28;20546;-72
2023/02/11 04:32:30;;;;;;;40.28;28.60;;;8.00;99.90;;;;;;2093311;28;20021;-72
2023/02/11 04:33:31;;;;;;;39.75;28.40;;;8.00;99.90;;;;;;2093429;28;20104;-72
2023/02/11 04:34:31;;;;;;;45.58;31.23;;;8.00;99.90;;;;;;2092576;28;20020;-72
2023/02/11 04:35:32;;;;;;;41.15;28.95;;;8.00;99.90;;;;;;2093250;28;20029;-72
2023/02/11 04:36:32;;;;;;;37.33;28.92;;;8.00;99.90;;;;;;2092168;28;20539;-72
2023/02/11 04:37:33;;;;;;;38.60;29.73;;;8.00;99.90;;;;;;2093465;28;20403;-72
2023/02/11 04:38:33;;;;;;;36.15;29.25;;;8.00;99.90;;;;;;2090681;28;20111;-72
2023/02/11 04:39:34;;;;;;;40.28;29.60;;;8.00;99.90;;;;;;2090383;28;20029;-72
2023/02/11 04:40:35;;;;;;;43.45;29.83;;;8.00;99.90;;;;;;2090898;28;20024;-72
2023/02/11 04:41:35;;;;;;;41.13;29.50;;;7.90;99.90;;;;;;2092277;28;20104;-72
2023/02/11 04:42:36;;;;;;;40.72;30.65;;;8.00;99.90;;;;;;2091724;28;20031;-72
2023/02/11 04:43:36;;;;;;;43.55;32.30;;;7.90;99.90;;;;;;2093367;28;20028;-72
2023/02/11 04:44:37;;;;;;;41.47;29.40;;;7.90;99.90;;;;;;2091137;28;20051;-72
2023/02/11 04:45:37;;;;;;;39.10;29.17;;;8.00;99.90;;;;;;2092827;28;20113;-72
2023/02/11 04:46:38;;;;;;;43.75;31.10;;;7.90;99.90;;;;;;2092097;28;20044;-72
2023/02/11 04:47:39;;;;;;;42.33;30.00;;;7.90;99.90;;;;;;2092121;28;20116;-72
2023/02/11 04:48:39;;;;;;;37.45;29.05;;;7.90;99.90;;;;;;2093747;28;20052;-72
2023/02/11 04:49:40;;;;;;;40.30;29.75;;;7.90;99.90;;;;;;2092825;28;20025;-72
2023/02/11 04:50:41;;;;;;;38.13;28.23;;;7.90;99.90;;;;;;2090765;28;20431;-72
2023/02/11 04:51:43;;;;;;;44.00;29.90;;;7.90;99.90;;;;;;2091668;28;20338;-72
2023/02/11 04:52:44;;;;;;;40.78;29.73;;;7.90;99.90;;;;;;2091537;28;20086;-72
2023/02/11 04:53:44;;;;;;;43.90;31.30;;;8.00;99.90;;;;;;2092635;28;20041;-72
2023/02/11 04:54:45;;;;;;;45.67;30.70;;;8.00;99.90;;;;;;2092027;28;20055;-72
2023/02/11 04:55:49;;;;;;;43.85;30.90;;;8.00;99.90;;;;;;2093443;28;20020;-72
2023/02/11 04:56:49;;;;;;;43.92;31.60;;;8.00;99.90;;;;;;2088034;28;20056;-72
2023/02/11 04:57:50;;;;;;;44.83;30.95;;;7.90;99.90;;;;;;2094749;28;20024;-72
2023/02/11 04:58:51;;;;;;;43.30;30.90;;;8.00;99.90;;;;;;2093453;28;20056;-72
2023/02/11 04:59:51;;;;;;;42.78;29.17;;;7.90;99.90;;;;;;2092744;28;20021;-72
2023/02/11 05:00:52;;;;;;;42.97;30.27;;;7.90;99.90;;;;;;2094102;28;20450;-72
2023/02/11 05:01:52;;;;;;;44.83;30.73;;;8.00;99.90;;;;;;2093378;28;20033;-72
2023/02/11 05:02:53;;;;;;;45.67;30.40;;;7.90;99.90;;;;;;2094562;28;20055;-72
2023/02/11 05:03:53;;;;;;;42.30;30.30;;;8.00;99.90;;;;;;2092359;28;20020;-72
2023/02/11 05:04:54;;;;;;;42.65;31.92;;;8.00;99.90;;;;;;2092751;28;20033;-72
2023/02/11 05:05:55;;;;;;;41.67;30.60;;;7.90;99.90;;;;;;2091652;28;20024;-72
2023/02/11 05:06:55;;;;;;;47.25;31.30;;;7.90;99.90;;;;;;2093015;28;20024;-72
2023/02/11 05:07:56;;;;;;;49.05;31.42;;;7.90;99.90;;;;;;2090409;28;20075;-72
2023/02/11 05:08:56;;;;;;;44.20;31.20;;;7.90;99.90;;;;;;2092783;28;20029;-72
2023/02/11 05:09:57;;;;;;;45.20;30.98;;;7.90;99.90;;;;;;2090484;28;20358;-72
2023/02/11 05:10:58;;;;;;;40.80;30.60;;;7.90;99.90;;;;;;2092307;28;20070;-72
2023/02/11 05:11:58;;;;;;;44.03;32.20;;;7.90;99.90;;;;;;2091317;28;20049;-72
2023/02/11 05:12:59;;;;;;;44.63;31.90;;;7.90;99.90;;;;;;2093124;28;20021;-72
2023/02/11 05:14:00;;;;;;;48.03;32.15;;;7.90;99.90;;;;;;2093006;28;20077;-72
2023/02/11 05:15:00;;;;;;;44.05;31.92;;;7.90;99.90;;;;;;2091945;28;20033;-72
2023/02/11 05:16:01;;;;;;;42.30;31.58;;;7.90;99.90;;;;;;2094861;28;20756;-72
2023/02/11 05:17:01;;;;;;;46.05;33.72;;;7.90;99.90;;;;;;2094208;28;20052;-72
2023/02/11 05:18:02;;;;;;;46.85;31.52;;;7.90;99.90;;;;;;2094040;28;20024;-72
2023/02/11 05:19:03;;;;;;;43.60;31.55;;;7.90;99.90;;;;;;2092876;28;20032;-72
2023/02/11 05:20:04;;;;;;;47.13;33.65;;;7.90;99.90;;;;;;2091722;28;20082;-72
2023/02/11 05:21:06;;;;;;;41.15;31.60;;;7.90;99.90;;;;;;2094978;28;20024;-72
2023/02/11 05:22:07;;;;;;;50.80;34.22;;;7.90;99.90;;;;;;2093783;28;20032;-72
2023/02/11 05:23:08;;;;;;;43.28;31.85;;;7.90;99.90;;;;;;2090503;28;20529;-72
2023/02/11 05:24:09;;;;;;;45.15;31.73;;;7.80;99.90;;;;;;2092375;28;20445;-72
2023/02/11 05:25:09;;;;;;;45.42;32.33;;;7.90;99.90;;;;;;2091567;28;20201;-72
2023/02/11 05:26:10;;;;;;;46.58;33.78;;;7.90;99.90;;;;;;2092030;28;20123;-72
2023/02/11 05:27:11;;;;;;;46.47;33.50;;;7.90;99.90;;;;;;2093258;28;20024;-72
2023/02/11 05:28:11;;;;;;;47.10;33.33;;;7.90;99.90;;;;;;2093100;28;20107;-72
2023/02/11 05:29:12;;;;;;;42.60;32.50;;;7.90;99.90;;;;;;2091478;28;20376;-72
2023/02/11 05:30:13;;;;;;;43.35;32.70;;;7.90;99.90;;;;;;2090904;28;20035;-72
2023/02/11 05:31:13;;;;;;;47.45;34.05;;;7.90;99.90;;;;;;2090769;28;20024;-72
2023/02/11 05:32:14;;;;;;;43.75;33.63;;;7.90;99.90;;;;;;2091885;28;20101;-72
2023/02/11 05:33:14;;;;;;;48.03;32.75;;;7.90;99.90;;;;;;2092975;28;20801;-72
2023/02/11 05:34:15;;;;;;;53.40;35.10;;;7.90;99.90;;;;;;2090937;28;20029;-72